createdAt,value
2017-09-20T00:01:03.306Z,101329
2017-09-20T00:03:29.560Z,101330
2017-09-20T00:05:56.569Z,101329
2017-09-20T00:08:22.797Z,101329
2017-09-20T00:10:49.357Z,101323
2017-09-20T00:13:15.609Z,101321
2017-09-20T00:15:42.584Z,101315
2017-09-20T00:18:08.821Z,101314
2017-09-20T00:20:35.086Z,101311
2017-09-20T00:23:01.313Z,101316
2017-09-20T00:25:27.543Z,101317
2017-09-20T00:27:54.561Z,101315
2017-09-20T00:30:20.802Z,101316
2017-09-20T00:32:47.049Z,101317
2017-09-20T00:35:13.552Z,101319
2017-09-20T00:37:39.781Z,101318
2017-09-20T00:40:06.034Z,101318
2017-09-20T00:42:32.300Z,101321
2017-09-20T00:44:58.594Z,101318
2017-09-20T00:47:24.840Z,101317
2017-09-20T00:49:51.844Z,101320
2017-09-20T00:52:18.086Z,101318
2017-09-20T00:54:44.324Z,101317
2017-09-20T00:57:10.607Z,101319
2017-09-20T00:59:36.867Z,101316
2017-09-20T01:02:03.146Z,101311
2017-09-20T01:04:29.720Z,101308
2017-09-20T01:06:55.955Z,101311
2017-09-20T01:09:22.945Z,101308
2017-09-20T01:11:49.928Z,101309
2017-09-20T01:14:16.174Z,101306
2017-09-20T01:16:42.437Z,101309
2017-09-20T01:19:09.421Z,101307
2017-09-20T01:21:54.717Z,101311
2017-09-20T01:24:20.976Z,101310
2017-09-20T01:26:47.244Z,101305
2017-09-20T01:29:13.917Z,101304
2017-09-20T01:31:40.169Z,101309
2017-09-20T01:34:06.418Z,101306
2017-09-20T01:36:33.417Z,101306
2017-09-20T01:38:59.702Z,101308
2017-09-20T01:41:26.712Z,101305
2017-09-20T01:43:52.973Z,101306
2017-09-20T01:46:19.202Z,101300
2017-09-20T01:48:46.168Z,101294
2017-09-20T01:51:13.036Z,101294
2017-09-20T01:53:39.268Z,101298
2017-09-20T01:56:05.485Z,101300
2017-09-20T01:58:31.745Z,101303
2017-09-20T02:00:57.974Z,101296
2017-09-20T02:03:24.190Z,101307
2017-09-20T02:05:50.429Z,101305
2017-09-20T02:08:16.661Z,101309
2017-09-20T02:10:42.893Z,101311
2017-09-20T02:13:09.122Z,101309
2017-09-20T02:15:35.625Z,101308
2017-09-20T02:18:02.363Z,101307
2017-09-20T02:20:28.582Z,101304
2017-09-20T02:22:54.977Z,101306
2017-09-20T02:25:21.957Z,101302
2017-09-20T02:27:48.185Z,101306
2017-09-20T02:30:14.749Z,101302
2017-09-20T02:32:40.993Z,101304
2017-09-20T02:35:07.234Z,101305
2017-09-20T02:37:34.244Z,101306
2017-09-20T02:40:00.506Z,101303
2017-09-20T02:42:27.531Z,101302
2017-09-20T02:44:53.780Z,101303
2017-09-20T02:47:20.778Z,101301
2017-09-20T02:49:47.325Z,101300
2017-09-20T02:52:13.577Z,101302
2017-09-20T02:54:40.582Z,101303
2017-09-20T02:57:06.840Z,101305
2017-09-20T02:59:33.088Z,101307
2017-09-20T03:02:00.062Z,101309
2017-09-20T03:04:26.454Z,101307
2017-09-20T03:06:52.683Z,101308
2017-09-20T03:09:18.917Z,101307
2017-09-20T03:11:45.423Z,101307
2017-09-20T03:14:11.650Z,101311
2017-09-20T03:16:37.902Z,101303
2017-09-20T03:19:04.411Z,101312
2017-09-20T03:21:30.646Z,101311
2017-09-20T03:23:56.870Z,101314
2017-09-20T03:26:23.097Z,101314
2017-09-20T03:28:49.333Z,101312
2017-09-20T03:31:15.553Z,101314
2017-09-20T03:33:41.784Z,101319
2017-09-20T03:36:08.021Z,101318
2017-09-20T03:38:34.266Z,101315
2017-09-20T03:41:00.493Z,101314
2017-09-20T03:43:26.715Z,101313
2017-09-20T03:45:52.989Z,101316
2017-09-20T03:48:19.209Z,101315
2017-09-20T03:50:45.440Z,101315
2017-09-20T03:53:11.704Z,101321
2017-09-20T03:55:37.934Z,101315
2017-09-20T03:58:04.213Z,101319
2017-09-20T04:00:31.253Z,101321
2017-09-20T04:02:58.227Z,101313
2017-09-20T04:05:24.460Z,101313
2017-09-20T04:07:50.714Z,101317
2017-09-20T04:10:16.940Z,101318
2017-09-20T04:12:43.926Z,101315
2017-09-20T04:15:11.243Z,101312
2017-09-20T04:17:37.469Z,101320
2017-09-20T04:20:03.692Z,101323
2017-09-20T04:22:30.689Z,101320
2017-09-20T04:24:57.661Z,101320
2017-09-20T04:27:23.899Z,101320
2017-09-20T04:29:50.158Z,101321
2017-09-20T04:32:16.393Z,101318
2017-09-20T04:34:42.632Z,101316
2017-09-20T04:37:09.851Z,101317
2017-09-20T04:39:36.078Z,101318
2017-09-20T04:42:02.329Z,101319
2017-09-20T04:44:28.844Z,101321
2017-09-20T04:46:55.078Z,101322
2017-09-20T04:49:21.310Z,101325
2017-09-20T04:51:47.567Z,101322
2017-09-20T04:54:14.545Z,101322
2017-09-20T04:56:40.761Z,101321
2017-09-20T04:59:07.000Z,101325
2017-09-20T05:01:33.415Z,101321
2017-09-20T05:03:59.650Z,101322
2017-09-20T05:06:26.533Z,101323
2017-09-20T05:08:52.758Z,101321
2017-09-20T05:11:19.000Z,101329
2017-09-20T05:13:45.276Z,101333
2017-09-20T05:16:11.657Z,101335
2017-09-20T05:18:38.629Z,101332
2017-09-20T05:21:05.645Z,101336
2017-09-20T05:23:31.876Z,101333
2017-09-20T05:25:58.094Z,101332
2017-09-20T05:28:24.374Z,101333
2017-09-20T05:30:51.388Z,101336
2017-09-20T05:33:17.642Z,101334
2017-09-20T05:35:44.948Z,101338
2017-09-20T05:38:11.194Z,101341
2017-09-20T05:40:37.426Z,101342
2017-09-20T05:43:03.926Z,101341
2017-09-20T05:45:30.158Z,101342
2017-09-20T05:47:56.385Z,101339
2017-09-20T05:50:22.935Z,101339
2017-09-20T05:52:49.152Z,101345
2017-09-20T05:55:15.373Z,101348
2017-09-20T05:57:41.825Z,101350
2017-09-20T06:00:08.077Z,101351
2017-09-20T06:02:34.301Z,101345
2017-09-20T06:05:00.537Z,101351
2017-09-20T06:07:26.787Z,101346
2017-09-20T06:09:53.091Z,101353
2017-09-20T06:12:19.351Z,101352
2017-09-20T06:14:45.590Z,101357
2017-09-20T06:17:12.145Z,101359
2017-09-20T06:19:38.374Z,101360
2017-09-20T06:22:04.593Z,101361
2017-09-20T06:24:30.841Z,101364
2017-09-20T06:26:57.080Z,101361
2017-09-20T06:29:23.316Z,101363
2017-09-20T06:31:49.730Z,101363
2017-09-20T06:34:15.966Z,101369
2017-09-20T06:36:42.185Z,101368
2017-09-20T06:39:08.437Z,101368
2017-09-20T06:41:34.668Z,101369
2017-09-20T06:44:00.910Z,101365
2017-09-20T06:46:28.506Z,101368
2017-09-20T06:48:54.742Z,101364
2017-09-20T06:51:20.989Z,101362
2017-09-20T06:53:47.305Z,101368
2017-09-20T06:56:13.764Z,101369
2017-09-20T06:58:40.069Z,101364
2017-09-20T07:01:06.294Z,101365
2017-09-20T07:03:32.549Z,101374
2017-09-20T07:05:58.892Z,101378
2017-09-20T07:08:25.163Z,101375
2017-09-20T07:10:51.397Z,101380
2017-09-20T07:13:17.665Z,101380
2017-09-20T07:15:43.910Z,101391
2017-09-20T07:18:10.169Z,101381
2017-09-20T07:20:36.426Z,101389
2017-09-20T07:23:02.694Z,101390
2017-09-20T07:25:29.414Z,101386
2017-09-20T07:27:55.665Z,101390
2017-09-20T07:30:21.924Z,101391
2017-09-20T07:32:48.382Z,101395
2017-09-20T07:35:14.874Z,101399
2017-09-20T07:37:42.092Z,101395
2017-09-20T07:40:08.435Z,101399
2017-09-20T07:42:34.677Z,101393
2017-09-20T07:45:01.666Z,101401
2017-09-20T07:47:28.007Z,101399
2017-09-20T07:49:54.416Z,101402
2017-09-20T07:52:20.700Z,101400
2017-09-20T07:54:46.958Z,101401
2017-09-20T07:57:13.973Z,101406
2017-09-20T07:59:40.238Z,101401
2017-09-20T08:02:06.525Z,101407
2017-09-20T08:04:32.811Z,101415
2017-09-20T08:06:59.223Z,101414
2017-09-20T08:09:25.818Z,101417
2017-09-20T08:11:52.130Z,101418
2017-09-20T08:14:18.414Z,101417
2017-09-20T08:16:44.701Z,101420
2017-09-20T08:19:12.099Z,101415
2017-09-20T08:21:40.256Z,101418
2017-09-20T08:24:06.649Z,101414
2017-09-20T08:26:33.633Z,101417
2017-09-20T08:28:59.993Z,101415
2017-09-20T08:31:26.421Z,101420
2017-09-20T08:33:53.423Z,101417
2017-09-20T08:36:19.810Z,101416
2017-09-20T08:38:46.529Z,101416
2017-09-20T08:41:13.692Z,101418
2017-09-20T08:43:40.031Z,101423
2017-09-20T08:46:06.503Z,101419
2017-09-20T08:48:32.923Z,101417
2017-09-20T08:50:59.261Z,101418
2017-09-20T08:53:25.632Z,101420
2017-09-20T08:55:53.603Z,101427
2017-09-20T08:58:20.747Z,101429
2017-09-20T09:00:48.076Z,101432
2017-09-20T09:03:14.392Z,101429
2017-09-20T09:05:40.667Z,101430
2017-09-20T09:08:07.810Z,101434
2017-09-20T09:10:34.071Z,101439
2017-09-20T09:13:00.300Z,101432
2017-09-20T09:15:26.563Z,101437
2017-09-20T09:17:52.792Z,101433
2017-09-20T09:20:19.042Z,101433
2017-09-20T09:22:45.297Z,101434
2017-09-20T09:25:12.314Z,101434
2017-09-20T09:27:38.595Z,101434
2017-09-20T09:30:05.053Z,101433
2017-09-20T09:32:31.315Z,101432
2017-09-20T09:34:58.352Z,101429
2017-09-20T09:37:24.632Z,101431
2017-09-20T09:39:50.883Z,101433
2017-09-20T09:42:17.129Z,101436
2017-09-20T09:44:43.419Z,101434
2017-09-20T09:47:09.661Z,101439
2017-09-20T09:49:35.919Z,101438
2017-09-20T09:52:02.270Z,101439
2017-09-20T09:54:29.290Z,101438
2017-09-20T09:56:55.602Z,101439
2017-09-20T09:59:21.856Z,101441
2017-09-20T10:01:48.111Z,101435
2017-09-20T10:04:15.259Z,101434
2017-09-20T10:06:42.314Z,101438
2017-09-20T10:09:09.307Z,101444
2017-09-20T10:11:35.632Z,101441
2017-09-20T10:14:02.754Z,101445
2017-09-20T10:16:29.837Z,101448
2017-09-20T10:18:56.195Z,101444
2017-09-20T10:21:23.303Z,101449
2017-09-20T10:23:49.702Z,101442
2017-09-20T10:26:15.925Z,101448
2017-09-20T10:28:42.885Z,101451
2017-09-20T10:31:09.146Z,101451
2017-09-20T10:33:35.378Z,101445
2017-09-20T10:36:01.614Z,101445
2017-09-20T10:38:28.607Z,101442
2017-09-20T10:40:55.582Z,101443
2017-09-20T10:43:21.813Z,101439
2017-09-20T10:45:48.061Z,101442
2017-09-20T10:48:14.281Z,101447
2017-09-20T10:50:40.518Z,101440
2017-09-20T10:53:07.050Z,101438
2017-09-20T10:55:33.281Z,101449
2017-09-20T10:57:59.513Z,101447
2017-09-20T11:00:25.942Z,101447
2017-09-20T11:02:52.167Z,101450
2017-09-20T11:05:18.400Z,101452
2017-09-20T11:07:44.653Z,101452
2017-09-20T11:10:11.621Z,101455
2017-09-20T11:12:37.837Z,101455
2017-09-20T11:15:04.873Z,101454
2017-09-20T11:17:31.833Z,101454
2017-09-20T11:19:58.813Z,101446
2017-09-20T11:22:25.069Z,101441
2017-09-20T11:24:51.286Z,101443
2017-09-20T11:27:17.514Z,101439
2017-09-20T11:29:44.184Z,101441
2017-09-20T11:32:11.146Z,101438
2017-09-20T11:34:38.430Z,101440
2017-09-20T11:37:04.664Z,101441
2017-09-20T11:39:31.402Z,101441
2017-09-20T11:41:57.616Z,101443
2017-09-20T11:44:23.902Z,101441
2017-09-20T11:46:50.131Z,101439
2017-09-20T11:49:16.483Z,101442
2017-09-20T11:51:43.914Z,101438
2017-09-20T11:54:10.890Z,101435
2017-09-20T11:56:37.110Z,101436
2017-09-20T11:59:04.270Z,101435
2017-09-20T12:01:30.501Z,101445
2017-09-20T12:03:56.986Z,101446
2017-09-20T12:06:23.237Z,101443
2017-09-20T12:08:50.382Z,101447
2017-09-20T12:11:17.756Z,101436
2017-09-20T12:13:44.062Z,101442
2017-09-20T12:16:10.296Z,101435
2017-09-20T12:18:37.281Z,101434
2017-09-20T12:21:03.502Z,101436
2017-09-20T12:23:29.740Z,101439
2017-09-20T12:25:56.011Z,101438
2017-09-20T12:28:22.242Z,101441
2017-09-20T12:30:48.473Z,101435
2017-09-20T12:33:14.721Z,101431
2017-09-20T12:35:41.696Z,101436
2017-09-20T12:38:07.917Z,101441
2017-09-20T12:40:34.171Z,101442
2017-09-20T12:43:00.406Z,101444
2017-09-20T12:45:26.649Z,101450
2017-09-20T12:47:52.884Z,101444
2017-09-20T12:50:19.134Z,101443
2017-09-20T12:52:46.111Z,101442
2017-09-20T12:55:12.383Z,101442
2017-09-20T12:57:38.612Z,101445
2017-09-20T13:00:04.859Z,101444
2017-09-20T13:02:32.073Z,101447
2017-09-20T13:04:58.310Z,101440
2017-09-20T13:07:24.554Z,101446
2017-09-20T13:09:50.793Z,101451
2017-09-20T13:12:17.758Z,101452
2017-09-20T13:14:44.006Z,101452
2017-09-20T13:17:10.481Z,101450
2017-09-20T13:19:36.725Z,101450
2017-09-20T13:22:03.722Z,101451
2017-09-20T13:24:30.010Z,101451
2017-09-20T13:26:56.986Z,101450
2017-09-20T13:29:23.350Z,101460
2017-09-20T13:31:49.878Z,101459
2017-09-20T13:34:16.097Z,101457
2017-09-20T13:36:44.049Z,101458
2017-09-20T13:39:10.302Z,101465
2017-09-20T13:41:36.566Z,101466
2017-09-20T13:44:03.731Z,101469
2017-09-20T13:46:30.041Z,101466
2017-09-20T13:48:56.266Z,101469
2017-09-20T13:51:22.780Z,101471
2017-09-20T13:53:49.013Z,101472
2017-09-20T13:56:15.626Z,101468
2017-09-20T13:58:41.865Z,101475
2017-09-20T14:01:08.942Z,101473
2017-09-20T14:03:35.198Z,101474
2017-09-20T14:06:02.269Z,101471
2017-09-20T14:08:29.261Z,101467
2017-09-20T14:10:55.493Z,101470
2017-09-20T14:13:21.911Z,101472
2017-09-20T14:15:48.144Z,101468
2017-09-20T14:18:14.393Z,101475
2017-09-20T14:20:41.384Z,101472
2017-09-20T14:23:07.605Z,101474
2017-09-20T14:25:33.833Z,101479
2017-09-20T14:28:00.084Z,101480
2017-09-20T14:30:27.052Z,101483
2017-09-20T14:32:53.279Z,101481
2017-09-20T14:35:19.522Z,101482
2017-09-20T14:37:46.485Z,101484
2017-09-20T14:40:13.160Z,101486
2017-09-20T14:42:39.385Z,101477
2017-09-20T14:45:05.639Z,101484
2017-09-20T14:47:32.691Z,101483
2017-09-20T14:49:58.930Z,101479
2017-09-20T14:52:25.158Z,101482
2017-09-20T14:54:51.427Z,101489
2017-09-20T14:57:17.655Z,101481
2017-09-20T14:59:43.883Z,101488
2017-09-20T15:02:10.121Z,101486
2017-09-20T15:04:36.345Z,101490
2017-09-20T15:07:02.573Z,101491
2017-09-20T15:09:28.838Z,101489
2017-09-20T15:11:55.061Z,101496
2017-09-20T15:14:21.281Z,101497
2017-09-20T15:16:47.545Z,101498
2017-09-20T15:19:14.533Z,101497
2017-09-20T15:21:40.761Z,101495
2017-09-20T15:24:07.015Z,101497
2017-09-20T15:26:33.259Z,101501
2017-09-20T15:28:59.784Z,101500
2017-09-20T15:31:26.075Z,101494
2017-09-20T15:33:52.315Z,101492
2017-09-20T15:36:18.537Z,101497
2017-09-20T15:38:45.096Z,101500
2017-09-20T15:41:11.329Z,101498
2017-09-20T15:43:37.569Z,101501
2017-09-20T15:46:03.822Z,101497
2017-09-20T15:48:30.854Z,101498
2017-09-20T15:50:57.110Z,101499
2017-09-20T15:53:24.109Z,101493
2017-09-20T15:55:50.351Z,101493
2017-09-20T15:58:16.578Z,101492
2017-09-20T16:00:42.850Z,101496
2017-09-20T16:03:09.065Z,101495
2017-09-20T16:05:36.056Z,101496
2017-09-20T16:08:02.318Z,101497
2017-09-20T16:10:28.532Z,101495
2017-09-20T16:12:54.797Z,101497
2017-09-20T16:15:21.810Z,101499
2017-09-20T16:17:48.026Z,101498
2017-09-20T16:20:14.250Z,101504
2017-09-20T16:22:40.519Z,101516
2017-09-20T16:25:07.506Z,101518
2017-09-20T16:27:33.764Z,101521
2017-09-20T16:30:00.029Z,101516
2017-09-20T16:32:27.011Z,101513
2017-09-20T16:34:53.240Z,101513
2017-09-20T16:37:19.525Z,101513
2017-09-20T16:39:46.481Z,101515
2017-09-20T16:42:13.472Z,101515
2017-09-20T16:44:39.692Z,101519
2017-09-20T16:47:06.162Z,101521
2017-09-20T16:49:32.713Z,101522
2017-09-20T16:51:59.847Z,101520
2017-09-20T16:54:26.148Z,101525
2017-09-20T16:56:52.385Z,101526
2017-09-20T16:59:18.643Z,101530
2017-09-20T17:01:45.660Z,101537
2017-09-20T17:04:11.882Z,101534
2017-09-20T17:06:38.109Z,101538
2017-09-20T17:09:04.464Z,101544
2017-09-20T17:11:30.678Z,101546
2017-09-20T17:13:56.902Z,101550
2017-09-20T17:16:23.326Z,101548
2017-09-20T17:18:49.554Z,101547
2017-09-20T17:21:16.520Z,101548
2017-09-20T17:23:42.794Z,101556
2017-09-20T17:26:09.009Z,101557
2017-09-20T17:28:35.972Z,101555
2017-09-20T17:31:02.233Z,101555
2017-09-20T17:33:28.466Z,101559
2017-09-20T17:35:54.699Z,101558
2017-09-20T17:38:20.958Z,101557
2017-09-20T17:40:47.925Z,101558
2017-09-20T17:43:14.164Z,101564
2017-09-20T17:45:40.414Z,101569
2017-09-20T17:48:06.637Z,101573
2017-09-20T17:50:32.881Z,101573
2017-09-20T17:52:59.129Z,101571
2017-09-20T17:55:25.357Z,101571
2017-09-20T17:57:51.576Z,101574
2017-09-20T18:00:17.851Z,101576
2017-09-20T18:02:44.081Z,101580
2017-09-20T18:05:10.309Z,101587
2017-09-20T18:07:36.581Z,101585
2017-09-20T18:10:02.837Z,101590
2017-09-20T18:12:29.810Z,101592
2017-09-20T18:14:56.178Z,101599
2017-09-20T18:17:22.406Z,101604
2017-09-20T18:19:48.660Z,101604
2017-09-20T18:22:14.933Z,101605
2017-09-20T18:24:41.167Z,101602
2017-09-20T18:27:07.388Z,101607
2017-09-20T18:29:33.658Z,101610
2017-09-20T18:31:59.959Z,101612
2017-09-20T18:34:26.288Z,101606
2017-09-20T18:36:52.538Z,101607
2017-09-20T18:39:18.767Z,101608
2017-09-20T18:41:45.029Z,101611
2017-09-20T18:44:12.064Z,101612
2017-09-20T18:46:39.105Z,101613
2017-09-20T18:49:05.374Z,101617
2017-09-20T18:51:31.740Z,101614
2017-09-20T18:53:57.985Z,101617
2017-09-20T18:56:24.306Z,101618
2017-09-20T18:58:50.626Z,101617
2017-09-20T19:01:16.940Z,101620
2017-09-20T19:03:43.293Z,101619
2017-09-20T19:06:09.598Z,101612
2017-09-20T19:08:35.830Z,101610
2017-09-20T19:11:02.170Z,101610
2017-09-20T19:13:28.496Z,101615
2017-09-20T19:15:54.752Z,101613
2017-09-20T19:18:21.120Z,101612
2017-09-20T19:20:47.377Z,101611
2017-09-20T19:23:13.680Z,101610
2017-09-20T19:25:39.938Z,101608
2017-09-20T19:28:06.163Z,101611
2017-09-20T19:30:32.458Z,101611
2017-09-20T19:32:59.511Z,101612
2017-09-20T19:35:25.818Z,101610
2017-09-20T19:37:53.278Z,101609
2017-09-20T19:40:20.356Z,101609
2017-09-20T19:42:46.594Z,101611
2017-09-20T19:45:12.942Z,101611
2017-09-20T19:47:39.190Z,101608
2017-09-20T19:50:05.498Z,101609
2017-09-20T19:52:31.760Z,101606
2017-09-20T19:54:58.065Z,101609
2017-09-20T19:57:24.391Z,101608
2017-09-20T19:59:50.749Z,101606
2017-09-20T20:02:17.002Z,101609
2017-09-20T20:04:44.045Z,101615
2017-09-20T20:07:11.143Z,101618
2017-09-20T20:09:37.383Z,101622
2017-09-20T20:12:03.641Z,101617
2017-09-20T20:14:29.994Z,101621
2017-09-20T20:16:56.260Z,101621
2017-09-20T20:19:22.569Z,101620
2017-09-20T20:21:48.847Z,101617
2017-09-20T20:24:15.083Z,101616
2017-09-20T20:26:41.325Z,101616
2017-09-20T20:29:08.313Z,101611
2017-09-20T20:31:34.540Z,101613
2017-09-20T20:34:00.761Z,101619
2017-09-20T20:36:27.001Z,101617
2017-09-20T20:38:53.226Z,101616
2017-09-20T20:41:19.502Z,101615
2017-09-20T20:43:45.721Z,101613
2017-09-20T20:46:12.021Z,101620
2017-09-20T20:48:38.377Z,101617
2017-09-20T20:51:04.613Z,101616
2017-09-20T20:53:30.853Z,101620
2017-09-20T20:55:57.864Z,101620
2017-09-20T20:58:24.101Z,101618
2017-09-20T21:00:50.330Z,101623
2017-09-20T21:03:16.797Z,101629
2017-09-20T21:05:43.757Z,101629
2017-09-20T21:08:09.986Z,101633
2017-09-20T21:10:36.233Z,101637
2017-09-20T21:13:02.472Z,101638
2017-09-20T21:15:28.722Z,101637
2017-09-20T21:17:55.010Z,101642
2017-09-20T21:20:21.251Z,101651
2017-09-20T21:22:47.482Z,101644
2017-09-20T21:25:14.027Z,101645
2017-09-20T21:27:40.248Z,101644
2017-09-20T21:30:06.470Z,101643
2017-09-20T21:32:32.709Z,101635
2017-09-20T21:34:58.937Z,101635
2017-09-20T21:37:25.157Z,101630
2017-09-20T21:39:51.436Z,101630
2017-09-20T21:42:18.423Z,101624
2017-09-20T21:44:44.649Z,101624
2017-09-20T21:47:10.928Z,101625
2017-09-20T21:49:37.175Z,101633
2017-09-20T21:52:04.155Z,101634
2017-09-20T21:54:30.443Z,101634
2017-09-20T21:56:56.685Z,101635
2017-09-20T21:59:23.673Z,101635
2017-09-20T22:01:49.928Z,101639
2017-09-20T22:04:16.163Z,101649
2017-09-20T22:06:42.407Z,101653
2017-09-20T22:09:09.619Z,101658
2017-09-20T22:11:35.833Z,101658
2017-09-20T22:14:02.073Z,101662
2017-09-20T22:16:46.841Z,101655
2017-09-20T22:19:31.695Z,101647
2017-09-20T22:22:16.603Z,101653
2017-09-20T22:25:02.233Z,101646
2017-09-20T22:27:28.535Z,101649
2017-09-20T22:29:55.533Z,101648
2017-09-20T22:32:21.785Z,101652
2017-09-20T22:34:48.025Z,101648
2017-09-20T22:37:15.015Z,101650
2017-09-20T22:39:41.274Z,101655
2017-09-20T22:42:07.542Z,101652
2017-09-20T22:44:34.503Z,101658
2017-09-20T22:47:00.728Z,101650
2017-09-20T22:49:27.219Z,101643
2017-09-20T22:51:53.453Z,101641
2017-09-20T22:54:19.701Z,101640
2017-09-20T22:56:46.709Z,101639
2017-09-20T22:59:13.251Z,101645
2017-09-20T23:01:39.568Z,101646
2017-09-20T23:04:05.793Z,101647
2017-09-20T23:06:32.027Z,101647
2017-09-20T23:08:58.330Z,101647
2017-09-20T23:11:24.557Z,101651
2017-09-20T23:13:50.779Z,101653
2017-09-20T23:16:17.037Z,101655
2017-09-20T23:18:43.302Z,101654
2017-09-20T23:21:10.270Z,101656
2017-09-20T23:23:36.841Z,101662
2017-09-20T23:26:03.056Z,101668
2017-09-20T23:28:29.305Z,101667
2017-09-20T23:30:55.828Z,101671
2017-09-20T23:33:22.037Z,101673
2017-09-20T23:35:48.266Z,101673
2017-09-20T23:38:15.302Z,101679
2017-09-20T23:40:41.522Z,101683
2017-09-20T23:43:07.744Z,101686
2017-09-20T23:45:34.762Z,101685
2017-09-20T23:48:00.992Z,101683
2017-09-20T23:50:27.217Z,101680
2017-09-20T23:52:53.461Z,101680
2017-09-20T23:55:20.425Z,101679
2017-09-20T23:57:46.657Z,101680
